Three Rivers, Mississippi
Current Conditions -  °F | °C
As of 4:53 PM on Thursday 23 Oct 2014 (Local Time) from KPQL Reporting Station
Clear Clear  
Wind Chill: 75°   Ceiling: Unl
Heat Index: 75°   Visibility: 10mi
Dew Point: 42°   Wind: 3mph
Humidity: 31%   Direction: 40°NE
Pressure: 30.03"   Gusts: NA
Location:  30.3649°N, 88.5432°W
Report Text: KPQL 232153Z 04003KT 10SM CLR 24/06 A3003 RMK AO2 SLP170 T02390056
Loading
Personal Weather Stations






























Interactive Weather Map
Tropical Storm Tracking
New forecast layout! Learn more

10-Day Weather Forecast

Advertisements
Track Severe Weather on mobile